ENHD/HAU METAR and TAF weather

Enter ICAO airport designator
Station Type Date Time Source
ENHD METAR 2024/04/15 08:20 UTC NOAA

ENHD 150820Z 13014KT 9999 -RA BKN023 OVC027 06/03 Q0999


Station Type Date Time Source
ENHD Decoded METAR 2024/04/15 08:20 UTC NOAA

Haugesund / Karmoy, Norway (ENHD) 59-21N 005-13E 24M
Apr 15, 2024 - 04:20 AM EDT / 2024.04.15 0820 UTC
Wind: from the SE (130 degrees) at 16 MPH (14 KT):0
Visibility: greater than 7 mile(s):0
Sky conditions: overcast
Weather: light rain
Temperature: 42 F (6 C)
Dew Point: 37 F (3 C)
Relative Humidity: 81%
Pressure (altimeter): 29.50 in. Hg (0999 hPa)
ob: ENHD 150820Z 13014KT 9999 -RA BKN023 OVC027 06/03 Q0999
cycle: 8

Station Type Date Time Source
ENHD TAF UTC NOAA

Error!

Example: see airport list